Latest Weather Observations for Cape Leeuwin

IDW60801

Issued at 11:32 am WST Saturday 5 September 2015 (issued every 30 minutes, with the page automatically refreshed every 10 minutes)

About weather observations | Map of weather stations | Latest weather observations for WA | Other Formats
Station Details ID: 009518 Name: CAPE LEEUWIN Lat: -34.37 Lon: 115.14 Height: 13.0 m
Data from the previous 72 hours. | See also: Recent months at Cape Leeuwin
Date/Time
WST
Temp
°C
App
Temp
°C
Dew
Point
Rel
Hum
%
Delta-T
°C
Wind Press
QNH
hPa
Press
MSL
hPa
Rain
since 9 am
mm
Dir
 
Spd
km/h
Gust
km/h
Spd
kts
Gust
kts
05/11:30am 15.0 6.7 6.3 56 4.2 SW 39 46 21 25 1021.1 1021.1 0.0
05/11:00am 14.3 7.1 7.6 64 3.3 SW 35 46 19 25 1021.1 1021.1 0.0
05/10:30am 14.4 5.8 6.3 58 3.9 WSW 41 54 22 29 1020.8 1020.8 0.0
05/10:00am 14.7 5.5 7.8 63 3.4 WSW 46 59 25 32 1020.5 1020.5 0.0
05/09:30am 14.7 3.8 5.4 53 4.4 WSW 52 65 28 35 1020.1 1020.1 0.0
05/09:00am 14.4 4.5 6.8 60 3.7 WSW 48 59 26 32 1019.7 1019.7 5.8
05/08:30am 14.6 5.6 8.7 67 3.0 WSW 46 57 25 31 1019.2 1019.2 5.8
05/08:00am 14.7 6.1 8.8 68 3.0 WSW 44 56 24 30 1018.6 1018.6 5.8
05/07:30am 14.8 4.6 7.0 59 3.8 WSW 50 59 27 32 1017.9 1017.9 5.8
05/07:00am 15.0 4.1 7.3 60 3.8 WSW 54 61 29 33 1017.4 1017.4 5.8
05/06:30am 15.0 4.9 7.5 61 3.7 WSW 50 61 27 33 1016.7 1016.7 5.8
05/06:00am 15.1 5.2 8.1 63 3.5 W 50 59 27 32 1016.0 1016.0 5.8
05/05:30am 14.9 4.6 8.1 64 3.4 WSW 52 61 28 33 1015.6 1015.6 5.8
05/05:00am 15.1 4.9 8.4 64 3.4 WSW 52 61 28 33 1015.0 1015.0 5.8
05/04:30am 15.0 5.3 8.9 67 3.1 W 50 61 27 33 1014.7 1014.7 5.8
05/04:16am 13.4 5.3 10.1 80 1.7 W 43 61 23 33 1014.8 1014.8 5.8
05/04:00am 13.8 5.5 11.4 85 1.3 W 46 59 25 32 1014.5 1014.5 5.2
05/03:30am 15.7 5.9 10.2 70 2.9 W 52 63 28 34 1014.1 1014.1 3.6
05/03:00am 15.8 6.0 11.5 75 2.3 W 54 67 29 36 1014.1 1014.1 3.6
05/02:30am 15.7 7.6 10.8 72 2.6 W 44 54 24 29 1014.2 1014.2 3.6
05/02:00am 15.1 7.0 12.0 82 1.7 WNW 46 56 25 30 1014.3 1014.3 3.6
05/01:30am 14.8 5.9 10.6 76 2.2 W 48 70 26 38 1014.3 1014.3 3.6
05/01:00am 15.6 7.3 11.3 75 2.3 W 46 65 25 35 1014.1 1014.1 3.6
05/12:30am 15.9 7.3 10.2 69 3.0 WNW 46 56 25 30 1013.9 1013.9 3.6
05/12:00am 16.1 7.6 10.8 71 2.8 WNW 46 52 25 28 1014.0 1014.0 3.6
 
Date/Time
WST
Temp
°C
App
Temp
°C
Dew
Point
Rel
Hum
%
Delta-T
°C
Wind Press
QNH
hPa
Press
MSL
hPa
Rain
since 9 am
mm
Dir
 
Spd
km/h
Gust
km/h
Spd
kts
Gust
kts
04/11:30pm 16.0 7.7 10.1 68 3.1 WNW 44 52 24 28 1014.1 1014.1 3.6
04/11:00pm 15.8 7.9 10.7 71 2.7 WNW 43 50 23 27 1014.2 1014.2 3.6
04/10:30pm 15.9 7.8 10.6 71 2.8 W 44 56 24 30 1014.2 1014.2 3.6
04/10:00pm 15.7 7.5 11.6 76 2.2 W 46 54 25 29 1014.2 1014.2 3.6
04/09:30pm 15.4 7.8 12.5 83 1.6 WNW 44 56 24 30 1014.0 1014.0 3.6
04/09:28pm 15.4 7.1 12.5 83 1.6 WNW 48 67 26 36 1014.1 1014.1 3.6
04/09:00pm 15.8 7.9 12.7 82 1.7 W 46 54 25 29 1013.9 1013.9 3.2
04/08:30pm 15.6 8.2 12.9 84 1.5 W 44 56 24 30 1013.6 1013.6 3.2
04/08:15pm 15.0 6.2 12.1 83 1.6 WNW 50 69 27 37 1013.7 1013.7 3.2
04/08:10pm 14.7 4.0 12.7 88 1.1 WNW 61 80 33 43 1013.6 1013.6 3.2
04/08:03pm 15.6 6.1 12.5 82 1.7 WNW 54 80 29 43 1013.1 1013.1 3.0
04/08:01pm 16.5 7.5 11.7 73 2.6 WNW 50 69 27 37 1013.2 1013.2 3.0
04/08:00pm 16.5 8.0 11.9 74 2.5 WNW 48 57 26 31 1013.3 1013.3 3.0
04/07:30pm 16.7 8.6 11.9 73 2.6 WNW 46 57 25 31 1013.1 1013.1 3.0
04/07:00pm 16.6 7.3 12.0 74 2.5 WNW 52 63 28 34 1012.6 1012.6 3.0
04/06:30pm 16.7 8.5 11.7 72 2.7 WNW 46 56 25 30 1012.3 1012.3 3.0
04/06:00pm 16.7 8.9 11.9 73 2.6 WNW 44 54 24 29 1011.9 1011.9 3.0
04/05:30pm 16.8 8.7 12.1 74 2.6 WNW 46 54 25 29 1011.7 1011.7 3.0
04/05:00pm 16.8 8.9 11.5 71 2.9 WNW 44 50 24 27 1011.5 1011.5 3.0
04/04:30pm 16.8 8.4 11.2 69 3.0 WNW 46 56 25 30 1011.3 1011.3 3.0
04/04:00pm 16.8 8.0 10.8 67 3.2 WNW 48 57 26 31 1011.5 1011.5 3.0
04/03:30pm 16.8 8.2 12.8 77 2.2 WNW 50 57 27 31 1011.2 1011.2 3.0
04/03:00pm 16.3 8.2 14.4 88 1.1 NW 50 57 27 31 1011.2 1011.2 3.0
04/02:51pm 16.2 8.6 14.8 91 0.8 NW 48 59 26 32 1011.2 1011.2 2.8
04/02:30pm 15.6 6.0 14.0 90 0.9 NNW 57 96 31 52 1011.2 1011.2 2.0
04/02:26pm 15.6 6.5 13.6 88 1.1 N 54 96 29 52 1010.5 1010.5 1.8
04/02:24pm 15.5 8.0 13.9 90 0.9 N 46 89 25 48 1010.5 1010.5 1.4
04/02:10pm 16.3 9.2 13.3 82 1.7 NNW 43 63 23 34 1010.7 1010.7 0.0
04/02:00pm 16.7 9.4 12.9 78 2.1 NNW 43 57 23 31 1011.0 1011.0 0.0
04/01:38pm 16.7 9.1 12.3 75 2.4 N 44 67 24 36 1011.2 1011.2 0.0
04/01:30pm 16.6 9.1 12.2 75 2.4 N 43 59 23 32 1011.3 1011.3 0.0
04/01:27pm 16.9 10.1 11.8 72 2.8 N 39 59 21 32 1011.4 1011.4 0.0
04/01:00pm 16.5 9.5 11.3 71 2.8 NNW 39 50 21 27 1012.0 1012.0 0.0
04/12:30pm 17.1 10.0 10.8 66 3.4 NNW 39 50 21 27 1012.5 1012.5 0.0
04/12:00pm 17.3 10.2 11.0 66 3.4 NNW 39 50 21 27 1012.6 1012.6 0.0
04/11:30am 17.0 10.2 10.6 66 3.4 NNW 37 50 20 27 1013.0 1013.0 0.0
04/11:00am 16.7 9.0 10.3 66 3.4 NNW 41 46 22 25 1013.2 1013.2 0.0
04/10:30am 16.5 8.4 10.9 69 3.0 NNW 44 52 24 28 1013.6 1013.6 0.0
04/10:00am 16.4 10.0 10.8 69 3.0 NW 35 41 19 22 1014.1 1014.1 0.0
04/09:30am 16.1 10.0 9.6 65 3.4 NNW 32 37 17 20 1013.8 1013.8 0.0
04/09:00am 16.1 9.8 9.6 65 3.4 NW 33 41 18 22 1014.2 1014.2 0.0
04/08:30am 16.1 9.3 9.3 64 3.5 NW 35 43 19 23 1014.8 1014.8 0.0
04/08:00am 15.6 8.8 9.2 65 3.3 NW 35 43 19 23 1014.9 1014.9 0.0
04/07:30am 15.4 9.1 8.9 65 3.3 NW 32 41 17 22 1015.0 1015.0 0.0
04/07:00am 14.2 9.3 8.6 69 2.8 NNW 24 28 13 15 1014.9 1014.9 0.0
04/06:30am 13.0 8.8 8.4 73 2.3 N 20 26 11 14 1014.7 1014.7 0.0
04/06:00am 12.3 8.4 7.3 71 2.4 N 17 20 9 11 1015.1 1015.1 0.0
04/05:30am 12.6 8.3 6.8 68 2.8 N 19 22 10 12 1015.0 1015.0 0.0
04/05:00am 10.4 5.6 4.6 67 2.6 NNE 19 24 10 13 1013.9 1013.9 0.0
04/04:30am 11.6 7.2 4.5 61 3.2 N 17 24 9 13 1014.6 1014.6 0.0
04/04:00am 10.9 5.8 4.2 63 3.0 NNE 20 26 11 14 1015.0 1015.0 0.0
04/03:30am 11.0 5.2 4.6 64 2.9 NNE 24 32 13 17 1015.4 1015.4 0.0
04/03:00am 11.1 5.4 4.9 65 2.8 NNE 24 30 13 16 1015.7 1015.7 0.0
04/02:30am 11.2 4.4 5.1 66 2.8 NE 30 33 16 18 1015.9 1015.9 0.0
04/02:00am 11.4 5.5 5.6 67 2.7 NE 26 33 14 18 1016.4 1016.4 0.0
04/01:30am 11.4 6.3 5.8 68 2.6 NE 22 28 12 15 1016.5 1016.5 0.0
04/01:00am 11.8 6.7 5.8 66 2.8 NE 22 26 12 14 1016.9 1016.9 0.0
04/12:30am 11.7 6.6 6.2 69 2.6 NE 22 30 12 16 1017.6 1017.6 0.0
04/12:00am 11.4 6.8 6.3 71 2.4 NE 20 24 11 13 1018.2 1018.2 0.0
 
Date/Time
WST
Temp
°C
App
Temp
°C
Dew
Point
Rel
Hum
%
Delta-T
°C
Wind Press
QNH
hPa
Press
MSL
hPa
Rain
since 9 am
mm
Dir
 
Spd
km/h
Gust
km/h
Spd
kts
Gust
kts
03/11:30pm 11.9 7.3 6.6 70 2.5 NE 20 24 11 13 1018.4 1018.4 0.0
03/11:00pm 11.9 7.6 7.1 72 2.3 NE 19 24 10 13 1018.8 1018.8 0.0
03/10:30pm 12.1 8.0 7.8 75 2.1 NE 19 20 10 11 1019.1 1019.1 0.0
03/10:00pm 12.9 9.1 8.9 76 2.0 NE 19 22 10 12 1019.7 1019.7 0.0
03/09:30pm 13.3 9.0 8.0 70 2.6 ENE 20 24 11 13 1019.9 1019.9 0.0
03/09:00pm 14.7 10.1 8.1 64 3.3 ENE 22 28 12 15 1020.1 1020.1 0.0
03/08:30pm 14.9 10.3 8.1 64 3.4 E 22 28 12 15 1020.2 1020.2 0.0
03/08:00pm 14.4 9.7 7.7 64 3.3 E 22 26 12 14 1020.3 1020.3 0.0
03/07:30pm 14.4 9.2 7.2 62 3.5 ESE 24 28 13 15 1020.4 1020.4 0.0
03/07:00pm 14.3 9.8 6.9 61 3.6 ESE 20 26 11 14 1020.6 1020.6 0.0
03/06:30pm 13.9 9.5 6.4 60 3.6 SE 19 22 10 12 1020.7 1020.7 0.0
03/06:00pm 13.7 9.8 6.9 63 3.3 SE 17 19 9 10 1020.9 1020.9 0.0
03/05:30pm 13.9 10.2 6.1 59 3.7 SE 15 20 8 11 1020.9 1020.9 0.0
03/05:00pm 14.2 10.4 5.7 56 4.0 SE 15 17 8 9 1021.2 1021.2 0.0
03/04:30pm 14.7 11.7 6.1 56 4.1 SSE 11 15 6 8 1021.4 1021.4 0.0
03/04:00pm 14.7 11.2 5.4 53 4.4 SE 13 20 7 11 1021.4 1021.4 0.0
03/03:30pm 15.4 11.8 5.2 50 4.8 SE 13 17 7 9 1021.5 1021.5 0.0
03/03:00pm 15.6 12.0 5.2 50 4.9 SE 13 19 7 10 1021.6 1021.6 0.0
03/02:30pm 15.1 11.8 4.8 50 4.8 SSE 11 15 6 8 1022.1 1022.1 0.0
03/02:00pm 15.2 12.4 5.2 51 4.7 S 9 13 5 7 1022.4 1022.4 0.0
03/01:30pm 15.2 12.0 4.9 50 4.8 SSE 11 15 6 8 1022.8 1022.8 0.0
03/01:00pm 15.2 11.9 4.7 49 4.9 SE 11 17 6 9 1023.1 1023.1 0.0
03/12:30pm 14.4 10.9 3.5 48 4.9 ESE 11 15 6 8 1023.7 1023.7 0.0
03/12:00pm 14.7 11.0 4.5 50 4.7 ESE 13 20 7 11 1024.2 1024.2 0.0
03/11:30am 14.4 9.8 3.8 49 4.8 ESE 17 20 9 11 1024.4 1024.4 0.0
03/11:00am 14.9 10.7 5.6 53 4.4 E 17 22 9 12 1024.9 1024.9 0.0
03/10:30am 13.7 9.3 4.5 54 4.2 ENE 17 22 9 12 1025.3 1025.3 0.0
03/10:00am 13.7 8.7 3.7 51 4.5 E 19 24 10 13 1025.4 1025.4 0.0
03/09:30am 13.0 8.7 5.2 59 3.6 ENE 17 24 9 13 1025.6 1025.6 0.0
03/09:00am 12.7 9.4 6.3 65 3.0 ENE 13 20 7 11 1025.7 1025.7 0.0
03/08:30am 12.1 7.5 6.6 69 2.6 NE 20 30 11 16 1025.4 1025.4 0.0
03/08:00am 11.7 7.2 6.1 68 2.6 NE 19 28 10 15 1025.5 1025.5 0.0
03/07:30am 11.5 7.6 6.9 73 2.2 NE 17 24 9 13 1025.1 1025.1 0.0
03/07:00am 11.2 6.7 6.3 72 2.3 NE 19 24 10 13 1025.1 1025.1 0.0
03/06:30am 11.2 6.7 6.3 72 2.3 NE 19 22 10 12 1025.4 1025.4 0.0
03/06:00am 11.3 6.6 6.1 70 2.4 NE 20 30 11 16 1025.3 1025.3 0.0
03/05:30am 11.2 6.6 6.5 73 2.2 NE 20 26 11 14 1025.3 1025.3 0.0
03/05:00am 11.3 7.7 6.6 73 2.2 NE 15 19 8 10 1025.1 1025.1 0.0
03/04:30am 11.6 8.1 7.0 73 2.2 NE 15 19 8 10 1025.1 1025.1 0.0
03/04:00am 11.1 7.9 6.9 75 2.0 NE 13 17 7 9 1025.1 1025.1 0.0
03/03:30am 11.0 8.1 6.7 75 2.0 NE 11 15 6 8 1025.0 1025.0 0.0
03/03:00am 11.2 7.5 6.5 73 2.2 NE 15 19 8 10 1025.3 1025.3 0.0
03/02:30am 11.8 7.8 6.5 70 2.5 NE 17 24 9 13 1025.6 1025.6 0.0
03/02:00am 11.9 7.9 6.6 70 2.5 NE 17 24 9 13 1025.7 1025.7 0.0
03/01:30am 12.3 8.0 6.8 69 2.6 NE 19 24 10 13 1026.0 1026.0 0.0
03/01:00am 13.2 7.5 6.5 64 3.2 ENE 26 32 14 17 1026.1 1026.1 0.0
03/12:30am 13.3 7.2 6.6 64 3.2 ENE 28 33 15 18 1026.3 1026.3 0.0
03/12:00am 13.4 7.2 6.0 61 3.5 E 28 35 15 19 1026.2 1026.2 0.0
 
Date/Time
WST
Temp
°C
App
Temp
°C
Dew
Point
Rel
Hum
%
Delta-T
°C
Wind Press
QNH
hPa
Press
MSL
hPa
Rain
since 9 am
mm
Dir
 
Spd
km/h
Gust
km/h
Spd
kts
Gust
kts
02/11:30pm 13.5 7.7 6.3 61 3.4 ENE 26 33 14 18 1026.4 1026.4 0.0
02/11:00pm 13.6 7.5 6.5 62 3.4 E 28 37 15 20 1026.7 1026.7 0.0
02/10:30pm 13.7 8.9 7.3 65 3.1 ENE 22 28 12 15 1026.8 1026.8 0.0
02/10:00pm 14.0 8.3 2.6 46 5.0 E 22 28 12 15 1027.0 1027.0 0.0
02/09:30pm 14.0 8.2 4.6 53 4.3 ESE 24 30 13 16 1027.1 1027.1 0.0
02/09:00pm 14.0 9.3 3.2 48 4.8 E 17 22 9 12 1027.2 1027.2 0.0
02/08:30pm 14.0 8.8 2.6 46 5.0 ESE 19 28 10 15 1027.2 1027.2 0.0
02/08:00pm 14.0 8.9 4.1 51 4.5 ESE 20 26 11 14 1027.1 1027.1 0.0
02/07:30pm 13.9 8.3 3.4 49 4.7 ESE 22 26 12 14 1027.1 1027.1 0.0
02/07:00pm 14.1 8.4 4.8 53 4.3 ESE 24 30 13 16 1026.8 1026.8 0.0
02/06:30pm 13.8 8.4 4.7 54 4.2 SE 22 28 12 15 1026.5 1026.5 0.0
02/06:00pm 13.7 8.8 4.0 52 4.4 SE 19 24 10 13 1026.3 1026.3 0.0
02/05:30pm 13.8 9.4 4.7 54 4.2 SE 17 20 9 11 1026.3 1026.3 0.0
02/05:00pm 14.0 9.9 4.1 51 4.5 SE 15 20 8 11 1026.2 1026.2 0.0
02/04:30pm 14.3 11.0 4.8 53 4.4 SSE 11 17 6 9 1026.2 1026.2 0.0
02/04:00pm 14.4 10.9 5.5 55 4.2 S 13 20 7 11 1026.3 1026.3 0.0
02/03:30pm 14.8 10.4 4.9 51 4.6 SSE 17 24 9 13 1026.5 1026.5 0.0
02/03:00pm 15.4 11.6 5.7 52 4.6 SSE 15 20 8 11 1026.5 1026.5 0.0
02/02:30pm 15.2 12.0 5.2 51 4.7 SSE 11 15 6 8 1026.6 1026.6 0.0
02/02:00pm 14.7 12.0 5.8 55 4.2 ESE 9 13 5 7 1026.6 1026.6 0.0
02/01:30pm 14.2 11.4 5.2 54 4.2 E 9 13 5 7 1026.8 1026.8 0.0
02/01:00pm 13.6 9.9 4.7 55 4.1 E 13 19 7 10 1027.0 1027.0 0.0
02/12:30pm 13.4 9.3 4.4 54 4.1 E 15 19 8 10 1027.4 1027.4 0.0
02/12:00pm 13.7 9.1 3.7 51 4.5 ENE 17 20 9 11 1027.8 1027.8 0.0

Other Formats:

Comma delimited format used in spreadsheet applications
http://www.bom.gov.au/fwo/IDW60801/IDW60801.94601.axf

JavaScript Object Notation format (JSON) in row-major order
http://www.bom.gov.au/fwo/IDW60801/IDW60801.94601.json